»·PEaware :: DLX805 KBOI-KRDD

DLX805 :: KBOI-KRDD

FLIGHT INFORMATION

Flight Status: Arrived
Operator: Unknown
More flights by this operator :: More flights under this callsign
Pilot: Daniel D. (10930)
Aircraft: BEECH AIRCRAFT SUPER KING AIR 350
(B350)
More flights by this aircraft type
Origin: KBOI Boise Air Terminal/Gowen
United States
Destination: KRDD Redding Mun
United States
More flights between these airports :: More routes between these airports
Route: BOI3 BOI HYVAL REO RBL
File this flight plan on PilotEdge
Remarks:
Altitude:
(Current/Filed)
28,000ft
Speed:
(Current/Filed)
320kts
Departed: 10-Apr-20 11:20 AM
Arrived: 10-Apr-20 12:30 PM
Distance/Time
Traveled:
327nm/1:09
Distance/Time
To Go:
Arrived

Flight Plot

Page will automatically refresh every two minutes.


Map Options




Map Legend


Flown Route
Filed Route
Departure Airport
Arrival Airport
Navaid (VOR, NDB)
Fix

Horizontal Profiles

Position Reports

Time Latitude Longitude Heading Altitude Ground
Speed
10-Apr-20 10:52 43.563763 -116.235650 266 2876ft 0kts
10-Apr-20 10:53 43.563763 -116.235650 266 2876ft 0kts
10-Apr-20 10:54 43.563763 -116.235650 266 2876ft 0kts
10-Apr-20 10:59 43.564108 -116.235828 175 2876ft 0kts
10-Apr-20 11:00 43.564108 -116.235828 175 2876ft 0kts
10-Apr-20 11:01 43.564108 -116.235828 175 2876ft 0kts
10-Apr-20 11:02 43.564108 -116.235827 175 2876ft 0kts
10-Apr-20 11:03 43.564108 -116.235827 175 2876ft 0kts
10-Apr-20 11:04 43.564108 -116.235827 175 2876ft 0kts
10-Apr-20 11:05 43.564108 -116.235827 175 2876ft 0kts
10-Apr-20 11:06 43.564105 -116.235836 174 2876ft 0kts
10-Apr-20 11:07 43.564105 -116.235836 174 2876ft 0kts
10-Apr-20 11:08 43.564105 -116.235836 174 2876ft 0kts
10-Apr-20 11:09 43.564105 -116.235836 174 2876ft 0kts
10-Apr-20 11:10 43.564057 -116.235814 143 2876ft 2kts
10-Apr-20 11:11 43.564769 -116.235567 31 2876ft 8kts
10-Apr-20 11:12 43.564685 -116.230846 115 2876ft 17kts
10-Apr-20 11:13 43.562154 -116.223438 115 2876ft 23kts
10-Apr-20 11:14 43.559284 -116.215030 115 2876ft 24kts
10-Apr-20 11:15 43.557829 -116.210355 77 2876ft 0kts
10-Apr-20 11:16 43.557829 -116.210356 78 2876ft 0kts
10-Apr-20 11:17 43.557829 -116.210356 78 2876ft 0kts
10-Apr-20 11:18 43.558850 -116.209997 309 2876ft 19kts
10-Apr-20 11:19 43.570313 -116.245423 288 4071ft 145kts
10-Apr-20 11:20 43.587585 -116.301745 298 6033ft 174kts
10-Apr-20 11:21 43.610608 -116.363802 294 8102ft 187kts
10-Apr-20 11:22 43.618773 -116.428233 222 10214ft 180kts
10-Apr-20 11:23 43.580125 -116.472342 223 12174ft 185kts
10-Apr-20 11:24 43.538832 -116.516087 220 14103ft 189kts
10-Apr-20 11:25 43.496349 -116.560049 220 15915ft 194kts
10-Apr-20 11:26 43.452286 -116.605545 220 17565ft 202kts
10-Apr-20 11:27 43.406569 -116.652658 219 19106ft 208kts
10-Apr-20 11:28 43.359351 -116.701236 218 20521ft 215kts
10-Apr-20 11:29 43.310724 -116.751150 218 21830ft 221kts
10-Apr-20 11:30 43.260906 -116.802186 218 23041ft 227kts
10-Apr-20 11:31 43.209721 -116.854504 218 24156ft 233kts
10-Apr-20 11:33 43.157072 -116.908201 218 25215ft 237kts
10-Apr-20 11:34 43.111386 -116.973027 234 26207ft 239kts
10-Apr-20 11:35 43.069969 -117.045005 234 27107ft 244kts
10-Apr-20 11:36 43.027618 -117.118610 235 27937ft 248kts
10-Apr-20 11:37 42.982462 -117.197255 234 28092ft 282kts
10-Apr-20 11:38 42.931248 -117.286347 234 28085ft 312kts
10-Apr-20 11:39 42.875528 -117.382643 234 28074ft 330kts
10-Apr-20 11:40 42.817729 -117.482071 233 28073ft 339kts
10-Apr-20 11:41 42.758527 -117.583587 233 28073ft 344kts
10-Apr-20 11:42 42.698613 -117.685931 232 28070ft 347kts
10-Apr-20 11:43 42.638141 -117.788827 232 28071ft 350kts
10-Apr-20 11:44 42.577208 -117.892842 234 28073ft 351kts
10-Apr-20 11:45 42.520475 -118.000802 236 28083ft 352kts
10-Apr-20 11:46 42.463277 -118.108696 235 28091ft 353kts
10-Apr-20 11:47 42.405347 -118.216943 235 28092ft 354kts
10-Apr-20 11:48 42.347336 -118.324900 235 28093ft 355kts
10-Apr-20 11:49 42.289309 -118.432498 235 28093ft 355kts
10-Apr-20 11:50 42.231009 -118.540219 235 28094ft 356kts
10-Apr-20 11:51 42.172409 -118.648104 235 28094ft 355kts
10-Apr-20 11:52 42.114639 -118.754060 235 28092ft 355kts
10-Apr-20 11:53 42.056042 -118.861164 235 28101ft 354kts
10-Apr-20 11:54 41.997642 -118.967522 235 28119ft 353kts
10-Apr-20 11:54 41.948945 -119.055886 235 28132ft 356kts
10-Apr-20 11:55 41.889628 -119.163248 235 28125ft 358kts
10-Apr-20 11:57 41.820240 -119.288360 235 28126ft 358kts
10-Apr-20 11:58 41.760761 -119.395176 235 28126ft 358kts
10-Apr-20 11:58 41.710850 -119.484520 235 28127ft 357kts
10-Apr-20 11:59 41.651260 -119.590840 235 28128ft 357kts
10-Apr-20 12:01 41.581497 -119.714841 234 28125ft 357kts
10-Apr-20 12:02 41.521616 -119.820867 234 28126ft 357kts
10-Apr-20 12:02 41.471699 -119.908978 234 28128ft 357kts
10-Apr-20 12:03 41.411835 -120.014308 235 28131ft 357kts
10-Apr-20 12:04 41.351786 -120.119600 235 28143ft 357kts
10-Apr-20 12:05 41.291467 -120.224997 235 28153ft 357kts
10-Apr-20 12:06 41.230974 -120.330336 235 28169ft 358kts
10-Apr-20 12:07 41.170527 -120.435236 235 28192ft 359kts
10-Apr-20 12:08 41.109859 -120.540144 235 28216ft 360kts
10-Apr-20 12:09 41.047792 -120.647380 235 26996ft 366kts
10-Apr-20 12:10 40.985923 -120.753684 234 25724ft 364kts
10-Apr-20 12:11 40.924352 -120.859159 234 24455ft 361kts
10-Apr-20 12:12 40.864656 -120.960821 235 24130ft 345kts
10-Apr-20 12:13 40.831045 -121.075535 257 24081ft 332kts
10-Apr-20 12:14 40.804748 -121.183961 255 23148ft 355kts
10-Apr-20 12:15 40.772253 -121.310181 254 21671ft 368kts
10-Apr-20 12:16 40.738611 -121.438605 254 20174ft 370kts
10-Apr-20 12:17 40.705653 -121.563453 254 18650ft 348kts
10-Apr-20 12:18 40.674209 -121.681787 253 17128ft 336kts
10-Apr-20 12:19 40.658769 -121.802119 275 15541ft 325kts
10-Apr-20 12:20 40.661317 -121.910952 275 13471ft 278kts
10-Apr-20 12:21 40.663991 -122.007661 275 11349ft 255kts
10-Apr-20 12:22 40.667808 -122.097911 275 9228ft 239kts
10-Apr-20 12:23 40.672444 -122.182752 275 7120ft 228kts
10-Apr-20 12:24 40.673223 -122.263550 246 5303ft 207kts
10-Apr-20 12:25 40.629782 -122.291659 195 3762ft 165kts
10-Apr-20 12:26 40.585464 -122.295352 180 2349ft 157kts
10-Apr-20 12:27 40.544443 -122.294952 180 1282ft 140kts
10-Apr-20 12:28 40.512733 -122.294900 181 723ft 54kts
10-Apr-20 12:29 40.508446 -122.296207 300 723ft 7kts
10-Apr-20 12:30 40.508660 -122.298725 282 723ft 4kts
10-Apr-20 12:31 40.508523 -122.299053 355 723ft 0kts
10-Apr-20 12:32 40.508522 -122.299053 355 723ft 0kts

Navigation Log

Ident Type
Flight plan parsing failed, navigation log unavailable